Cooke City, MT (59020)

12:05 AM MDT on September 02, 2015 (GMT -0600)
Old Cooke City | | Change Station
CLOSE
Current Station
Personal Weather Station
Location: Montana, MT
Elevation: 7566 ft
Nearby Weather Stations
Active Advisory: Fire Weather Warning

Elev 7566 ft 45.02 °N, 109.94 °W | Updated 13 minutes ago

Clear
Clear
46.9 °F
Feels Like 47 °F
N
0.0
Wind Variable Wind from NNE

Today
High -- | Low -- °F
--% Chance of Precip.
Yesterday
High -- | Low -- °F
Precip. -- in
6:42 AM 7:55 PM
Waning Gibbous, 83% visible
Pressure 29.94 in
Visibility -9999.0 miles
Clouds
Windchill 47 °F
Dew Point 34 °F
Humidity 60%
Rainfall in
Snow Depth Not available.
UV Not available.
Pollen 9.10 out of 12
Air Quality Not available.
Flu Activity Not available.
METAR KP60 020556Z AUTO 00000KT 06/M01 A3017 RMK AO1 SLP138 T00611011 10217 20061 58003 $
Pressure 29.94 in
Visibility -9999.0 miles
Clouds
Windchill 47 °F
Dew Point 34 °F
Humidity 60%
Rainfall in
Snow Depth Not available.
UV Not available.
Pollen 9.10 out of 12
Air Quality Not available.
Flu Activity Not available.
METAR KP60 020556Z AUTO 00000KT 06/M01 A3017 RMK AO1 SLP138 T00611011 10217 20061 58003 $

10-Day Weather Forecast

×

Almanac

Astronomy

Sep. 02, 2015 Rise Set
Actual Time
Civil Twilight
Nautical Twilight
Astronomical Twilight
Moon
Length of Visible Light
Length of Day
Tomorrow will be .
, % of the Moon is Illuminated

Today's Extremes

State Highs State Lows

Community

WunderPhotos

Upload Photos

1,851,709 photos uploaded!

WunderBlogs® & News

Nearby

Air Quality

  Air Quality AQ Index Pollutant
Not available.

Snow Depth

Station Depth Elevation

Earthquake Activity

City Distance Mag. Time & Date
Minimum magnitude displayed is 2.5.

Coastal Water Temperatures

Place Temperature

Stations

Nearby Weather Stations

Station Location Temp. Windchill Dew Point Humidity Wind Precip. Elev Updated Type
                   
Fire Weather Warning
Statement as of 2:37 PM MDT on September 01, 2015

... Red flag warning remains in effect from noon Wednesday to
midnight MDT Wednesday night...

* impacts: low humidities... hot temperatures... and strong gusty
winds will create critical fire weather conditions.

* Affected area:
   in south central Mt... fire weather zones 123... 124... 125 and
   126.

* Counties affected:
   in central Mt... Wheatland.
   In south central Mt... Carbon... park... Stillwater... Sweet Grass.
   In southwest Mt... Gallatin.

* Wind: southwest 15 to 25 mph with gusts up to 35 mph.

* Humidity: in the teens.

* Temperatures: upper 80s to lower 90s.

Precautionary/preparedness actions...

Be very careful with any open flames. Check with local officials
before conducting any burning.